sensor_id;sensor_type;location;lat;lon;timestamp;temperature;humidity
52575;DHT22;38468;48.114;-1.684;2023-03-24T00:00:51;11.50;81.40
52575;DHT22;38468;48.114;-1.684;2023-03-24T00:02:51;11.50;81.50
52575;DHT22;38468;48.114;-1.684;2023-03-24T00:04:52;11.50;81.40
52575;DHT22;38468;48.114;-1.684;2023-03-24T00:06:58;11.40;81.40
52575;DHT22;38468;48.114;-1.684;2023-03-24T00:09:01;11.50;81.50
52575;DHT22;38468;48.114;-1.684;2023-03-24T00:11:08;11.50;81.60
52575;DHT22;38468;48.114;-1.684;2023-03-24T00:13:11;11.50;81.60
52575;DHT22;38468;48.114;-1.684;2023-03-24T00:15:15;11.40;81.60
52575;DHT22;38468;48.114;-1.684;2023-03-24T00:17:18;11.40;81.70
52575;DHT22;38468;48.114;-1.684;2023-03-24T00:19:20;11.40;81.80
52575;DHT22;38468;48.114;-1.684;2023-03-24T00:21:23;11.40;81.70
52575;DHT22;38468;48.114;-1.684;2023-03-24T00:23:25;11.40;81.80
52575;DHT22;38468;48.114;-1.684;2023-03-24T00:25:29;11.40;81.90
52575;DHT22;38468;48.114;-1.684;2023-03-24T00:27:35;11.30;81.90
52575;DHT22;38468;48.114;-1.684;2023-03-24T00:29:36;11.30;82.00
52575;DHT22;38468;48.114;-1.684;2023-03-24T00:31:37;11.40;82.00
52575;DHT22;38468;48.114;-1.684;2023-03-24T00:33:39;11.40;82.10
52575;DHT22;38468;48.114;-1.684;2023-03-24T00:35:40;11.40;82.10
52575;DHT22;38468;48.114;-1.684;2023-03-24T00:37:44;11.40;82.00
52575;DHT22;38468;48.114;-1.684;2023-03-24T00:39:45;11.30;81.90
52575;DHT22;38468;48.114;-1.684;2023-03-24T00:41:46;11.30;82.10
52575;DHT22;38468;48.114;-1.684;2023-03-24T00:43:49;11.20;82.00
52575;DHT22;38468;48.114;-1.684;2023-03-24T00:45:56;11.20;82.10
52575;DHT22;38468;48.114;-1.684;2023-03-24T00:47:56;11.30;82.00
52575;DHT22;38468;48.114;-1.684;2023-03-24T00:49:58;11.20;82.10
52575;DHT22;38468;48.114;-1.684;2023-03-24T00:52:01;11.20;82.30
52575;DHT22;38468;48.114;-1.684;2023-03-24T00:54:10;11.20;82.30
52575;DHT22;38468;48.114;-1.684;2023-03-24T00:56:12;11.10;82.40
52575;DHT22;38468;48.114;-1.684;2023-03-24T00:58:17;11.20;82.40
52575;DHT22;38468;48.114;-1.684;2023-03-24T01:00:21;11.10;82.40
52575;DHT22;38468;48.114;-1.684;2023-03-24T01:02:24;11.10;82.40
52575;DHT22;38468;48.114;-1.684;2023-03-24T01:04:26;11.20;82.50
52575;DHT22;38468;48.114;-1.684;2023-03-24T01:06:27;11.10;82.50
52575;DHT22;38468;48.114;-1.684;2023-03-24T01:08:28;11.10;82.40
52575;DHT22;38468;48.114;-1.684;2023-03-24T01:10:31;11.10;82.60
52575;DHT22;38468;48.114;-1.684;2023-03-24T01:12:35;11.10;82.40
52575;DHT22;38468;48.114;-1.684;2023-03-24T01:14:38;11.20;82.40
52575;DHT22;38468;48.114;-1.684;2023-03-24T01:16:40;11.10;82.40
52575;DHT22;38468;48.114;-1.684;2023-03-24T01:18:41;11.10;82.40
52575;DHT22;38468;48.114;-1.684;2023-03-24T01:20:44;11.10;82.40
52575;DHT22;38468;48.114;-1.684;2023-03-24T01:22:45;11.10;82.40
52575;DHT22;38468;48.114;-1.684;2023-03-24T01:24:47;11.10;82.60
52575;DHT22;38468;48.114;-1.684;2023-03-24T01:26:48;11.10;82.50
52575;DHT22;38468;48.114;-1.684;2023-03-24T01:28:48;11.10;82.50
52575;DHT22;38468;48.114;-1.684;2023-03-24T01:30:51;11.10;82.50
52575;DHT22;38468;48.114;-1.684;2023-03-24T01:32:52;11.10;82.50
52575;DHT22;38468;48.114;-1.684;2023-03-24T01:34:53;11.00;82.60
52575;DHT22;38468;48.114;-1.684;2023-03-24T01:36:54;11.10;82.70
52575;DHT22;38468;48.114;-1.684;2023-03-24T01:38:55;11.10;82.60
52575;DHT22;38468;48.114;-1.684;2023-03-24T01:40:58;11.10;82.50
52575;DHT22;38468;48.114;-1.684;2023-03-24T01:42:59;11.10;82.50
52575;DHT22;38468;48.114;-1.684;2023-03-24T01:45:32;11.10;82.60
52575;DHT22;38468;48.114;-1.684;2023-03-24T01:47:21;11.10;82.50
52575;DHT22;38468;48.114;-1.684;2023-03-24T01:49:28;11.10;82.40
52575;DHT22;38468;48.114;-1.684;2023-03-24T01:51:40;11.10;82.40
52575;DHT22;38468;48.114;-1.684;2023-03-24T01:53:55;11.10;82.50
52575;DHT22;38468;48.114;-1.684;2023-03-24T01:55:59;11.00;82.70
52575;DHT22;38468;48.114;-1.684;2023-03-24T01:58:02;11.00;82.80
52575;DHT22;38468;48.114;-1.684;2023-03-24T02:00:08;11.00;82.80
52575;DHT22;38468;48.114;-1.684;2023-03-24T02:02:09;11.00;83.00
52575;DHT22;38468;48.114;-1.684;2023-03-24T02:04:13;11.00;82.90
52575;DHT22;38468;48.114;-1.684;2023-03-24T02:06:15;11.00;83.00
52575;DHT22;38468;48.114;-1.684;2023-03-24T02:08:22;11.00;83.00
52575;DHT22;38468;48.114;-1.684;2023-03-24T02:10:25;11.00;83.00
52575;DHT22;38468;48.114;-1.684;2023-03-24T02:12:26;11.00;83.10
52575;DHT22;38468;48.114;-1.684;2023-03-24T02:14:26;10.90;83.10
52575;DHT22;38468;48.114;-1.684;2023-03-24T02:51:44;10.80;83.20
52575;DHT22;38468;48.114;-1.684;2023-03-24T03:03:04;10.90;82.90
52575;DHT22;38468;48.114;-1.684;2023-03-24T03:05:18;10.90;82.90
52575;DHT22;38468;48.114;-1.684;2023-03-24T03:07:24;10.90;82.90
52575;DHT22;38468;48.114;-1.684;2023-03-24T03:09:27;10.80;82.90
52575;DHT22;38468;48.114;-1.684;2023-03-24T03:11:28;10.90;82.90
52575;DHT22;38468;48.114;-1.684;2023-03-24T03:13:36;10.90;82.90
52575;DHT22;38468;48.114;-1.684;2023-03-24T03:15:42;10.90;82.90
52575;DHT22;38468;48.114;-1.684;2023-03-24T03:17:50;10.90;82.80
52575;DHT22;38468;48.114;-1.684;2023-03-24T03:20:06;10.90;82.80
52575;DHT22;38468;48.114;-1.684;2023-03-24T03:22:21;10.90;82.80
52575;DHT22;38468;48.114;-1.684;2023-03-24T03:24:36;10.90;82.80
52575;DHT22;38468;48.114;-1.684;2023-03-24T03:26:40;10.90;82.80
52575;DHT22;38468;48.114;-1.684;2023-03-24T03:28:45;10.90;82.70
52575;DHT22;38468;48.114;-1.684;2023-03-24T03:30:53;10.90;82.60
52575;DHT22;38468;48.114;-1.684;2023-03-24T03:32:58;10.90;82.70
52575;DHT22;38468;48.114;-1.684;2023-03-24T03:35:23;11.00;82.50
52575;DHT22;38468;48.114;-1.684;2023-03-24T03:39:40;10.90;82.60
52575;DHT22;38468;48.114;-1.684;2023-03-24T03:41:43;10.90;82.30
52575;DHT22;38468;48.114;-1.684;2023-03-24T03:43:46;11.00;82.60
52575;DHT22;38468;48.114;-1.684;2023-03-24T03:45:47;11.00;82.50
52575;DHT22;38468;48.114;-1.684;2023-03-24T03:47:48;11.00;82.50
52575;DHT22;38468;48.114;-1.684;2023-03-24T03:49:50;10.90;82.40
52575;DHT22;38468;48.114;-1.684;2023-03-24T03:51:51;10.90;82.40
52575;DHT22;38468;48.114;-1.684;2023-03-24T03:53:56;11.00;82.50
52575;DHT22;38468;48.114;-1.684;2023-03-24T03:55:58;11.00;82.50
52575;DHT22;38468;48.114;-1.684;2023-03-24T03:57:59;11.00;82.40
52575;DHT22;38468;48.114;-1.684;2023-03-24T04:00:01;11.00;82.40
52575;DHT22;38468;48.114;-1.684;2023-03-24T04:02:37;11.00;82.30
52575;DHT22;38468;48.114;-1.684;2023-03-24T04:04:56;11.00;82.40
52575;DHT22;38468;48.114;-1.684;2023-03-24T04:07:26;11.00;82.30
52575;DHT22;38468;48.114;-1.684;2023-03-24T04:14:33;10.90;82.40
52575;DHT22;38468;48.114;-1.684;2023-03-24T04:29:15;11.00;82.50
52575;DHT22;38468;48.114;-1.684;2023-03-24T04:31:30;11.00;82.50
52575;DHT22;38468;48.114;-1.684;2023-03-24T04:33:48;11.00;82.50
52575;DHT22;38468;48.114;-1.684;2023-03-24T04:36:02;11.00;82.50
52575;DHT22;38468;48.114;-1.684;2023-03-24T04:38:09;11.00;82.40
52575;DHT22;38468;48.114;-1.684;2023-03-24T04:40:12;11.00;82.40
52575;DHT22;38468;48.114;-1.684;2023-03-24T04:42:20;11.00;82.40
52575;DHT22;38468;48.114;-1.684;2023-03-24T04:44:23;11.00;82.50
52575;DHT22;38468;48.114;-1.684;2023-03-24T04:46:24;11.00;82.50
52575;DHT22;38468;48.114;-1.684;2023-03-24T04:48:25;11.10;82.50
52575;DHT22;38468;48.114;-1.684;2023-03-24T04:52:30;11.10;82.30
52575;DHT22;38468;48.114;-1.684;2023-03-24T04:54:31;11.10;82.20
52575;DHT22;38468;48.114;-1.684;2023-03-24T04:58:38;11.00;82.10
52575;DHT22;38468;48.114;-1.684;2023-03-24T05:00:39;11.00;82.00
52575;DHT22;38468;48.114;-1.684;2023-03-24T05:02:40;11.00;82.10
52575;DHT22;38468;48.114;-1.684;2023-03-24T05:04:41;11.00;82.00
52575;DHT22;38468;48.114;-1.684;2023-03-24T05:06:42;11.00;81.80
52575;DHT22;38468;48.114;-1.684;2023-03-24T05:08:42;11.00;81.90
52575;DHT22;38468;48.114;-1.684;2023-03-24T05:10:43;11.00;81.80
52575;DHT22;38468;48.114;-1.684;2023-03-24T05:12:44;11.10;81.80
52575;DHT22;38468;48.114;-1.684;2023-03-24T05:14:45;11.10;81.60
52575;DHT22;38468;48.114;-1.684;2023-03-24T05:16:46;11.00;81.60
52575;DHT22;38468;48.114;-1.684;2023-03-24T05:18:46;11.00;81.60
52575;DHT22;38468;48.114;-1.684;2023-03-24T05:20:47;11.00;81.50
52575;DHT22;38468;48.114;-1.684;2023-03-24T05:22:48;11.00;81.50
52575;DHT22;38468;48.114;-1.684;2023-03-24T05:24:49;11.00;81.60
52575;DHT22;38468;48.114;-1.684;2023-03-24T05:26:49;11.00;81.60
52575;DHT22;38468;48.114;-1.684;2023-03-24T05:28:50;11.00;81.50
52575;DHT22;38468;48.114;-1.684;2023-03-24T05:30:50;11.00;81.30
52575;DHT22;38468;48.114;-1.684;2023-03-24T05:32:51;11.00;81.20
52575;DHT22;38468;48.114;-1.684;2023-03-24T05:34:52;11.00;81.30
52575;DHT22;38468;48.114;-1.684;2023-03-24T05:36:52;10.90;81.20
52575;DHT22;38468;48.114;-1.684;2023-03-24T05:38:53;10.90;81.20
52575;DHT22;38468;48.114;-1.684;2023-03-24T05:40:56;10.90;81.30
52575;DHT22;38468;48.114;-1.684;2023-03-24T05:42:57;10.90;81.30
52575;DHT22;38468;48.114;-1.684;2023-03-24T05:44:58;11.00;81.20
52575;DHT22;38468;48.114;-1.684;2023-03-24T05:46:59;10.90;81.20
52575;DHT22;38468;48.114;-1.684;2023-03-24T05:48:59;10.90;81.00
52575;DHT22;38468;48.114;-1.684;2023-03-24T05:51:00;11.00;81.10
52575;DHT22;38468;48.114;-1.684;2023-03-24T05:53:00;11.00;81.30
52575;DHT22;38468;48.114;-1.684;2023-03-24T05:55:01;11.00;80.60
52575;DHT22;38468;48.114;-1.684;2023-03-24T05:57:02;11.00;80.90
52575;DHT22;38468;48.114;-1.684;2023-03-24T05:59:03;11.00;80.80
52575;DHT22;38468;48.114;-1.684;2023-03-24T06:01:10;11.00;80.70
52575;DHT22;38468;48.114;-1.684;2023-03-24T06:03:11;11.00;80.60
52575;DHT22;38468;48.114;-1.684;2023-03-24T06:05:13;11.00;80.70
52575;DHT22;38468;48.114;-1.684;2023-03-24T06:07:14;11.00;80.60
52575;DHT22;38468;48.114;-1.684;2023-03-24T06:09:15;11.00;80.60
52575;DHT22;38468;48.114;-1.684;2023-03-24T06:11:16;11.00;80.40
52575;DHT22;38468;48.114;-1.684;2023-03-24T06:13:16;11.00;80.50
52575;DHT22;38468;48.114;-1.684;2023-03-24T06:15:17;11.00;80.60
52575;DHT22;38468;48.114;-1.684;2023-03-24T06:17:18;11.10;80.50
52575;DHT22;38468;48.114;-1.684;2023-03-24T06:19:20;11.10;80.40
52575;DHT22;38468;48.114;-1.684;2023-03-24T06:21:22;11.10;80.50
52575;DHT22;38468;48.114;-1.684;2023-03-24T06:23:30;11.10;80.50
52575;DHT22;38468;48.114;-1.684;2023-03-24T06:25:34;11.10;80.40
52575;DHT22;38468;48.114;-1.684;2023-03-24T06:27:35;11.10;80.20
52575;DHT22;38468;48.114;-1.684;2023-03-24T06:29:36;11.10;80.30
52575;DHT22;38468;48.114;-1.684;2023-03-24T06:31:37;11.10;80.40
52575;DHT22;38468;48.114;-1.684;2023-03-24T06:33:38;11.20;80.40
52575;DHT22;38468;48.114;-1.684;2023-03-24T06:35:39;11.10;80.20
52575;DHT22;38468;48.114;-1.684;2023-03-24T06:37:40;11.20;80.30
52575;DHT22;38468;48.114;-1.684;2023-03-24T06:39:41;11.20;80.30
52575;DHT22;38468;48.114;-1.684;2023-03-24T06:41:42;11.20;80.40
52575;DHT22;38468;48.114;-1.684;2023-03-24T06:43:42;11.30;80.30
52575;DHT22;38468;48.114;-1.684;2023-03-24T06:45:44;11.40;80.20
52575;DHT22;38468;48.114;-1.684;2023-03-24T06:47:44;11.30;79.90
52575;DHT22;38468;48.114;-1.684;2023-03-24T06:49:45;11.40;80.00
52575;DHT22;38468;48.114;-1.684;2023-03-24T06:51:46;11.50;80.00
52575;DHT22;38468;48.114;-1.684;2023-03-24T06:53:46;11.40;79.60
52575;DHT22;38468;48.114;-1.684;2023-03-24T06:55:48;11.50;79.70
52575;DHT22;38468;48.114;-1.684;2023-03-24T06:57:49;11.40;79.30
52575;DHT22;38468;48.114;-1.684;2023-03-24T06:59:50;11.40;79.70
52575;DHT22;38468;48.114;-1.684;2023-03-24T07:01:51;11.50;79.70
52575;DHT22;38468;48.114;-1.684;2023-03-24T07:03:52;11.60;79.70
52575;DHT22;38468;48.114;-1.684;2023-03-24T07:05:53;11.60;79.40
52575;DHT22;38468;48.114;-1.684;2023-03-24T07:07:54;11.70;79.70
52575;DHT22;38468;48.114;-1.684;2023-03-24T07:09:55;11.80;79.50
52575;DHT22;38468;48.114;-1.684;2023-03-24T07:11:56;11.80;79.00
52575;DHT22;38468;48.114;-1.684;2023-03-24T07:13:57;11.80;78.80
52575;DHT22;38468;48.114;-1.684;2023-03-24T07:15:57;11.80;78.80
52575;DHT22;38468;48.114;-1.684;2023-03-24T07:17:58;11.90;79.40
52575;DHT22;38468;48.114;-1.684;2023-03-24T07:20:00;12.00;79.30
52575;DHT22;38468;48.114;-1.684;2023-03-24T07:22:00;12.00;79.20
52575;DHT22;38468;48.114;-1.684;2023-03-24T07:24:01;11.90;78.40
52575;DHT22;38468;48.114;-1.684;2023-03-24T07:26:02;12.00;79.00
52575;DHT22;38468;48.114;-1.684;2023-03-24T07:28:02;12.00;78.70
52575;DHT22;38468;48.114;-1.684;2023-03-24T07:30:03;11.90;78.70
52575;DHT22;38468;48.114;-1.684;2023-03-24T07:32:04;12.00;79.00
52575;DHT22;38468;48.114;-1.684;2023-03-24T07:34:07;12.10;79.10
52575;DHT22;38468;48.114;-1.684;2023-03-24T07:36:08;12.10;78.30
52575;DHT22;38468;48.114;-1.684;2023-03-24T07:38:09;12.20;78.40
52575;DHT22;38468;48.114;-1.684;2023-03-24T07:40:10;12.20;78.40
52575;DHT22;38468;48.114;-1.684;2023-03-24T07:42:12;12.40;78.60
52575;DHT22;38468;48.114;-1.684;2023-03-24T07:44:13;12.60;78.50
52575;DHT22;38468;48.114;-1.684;2023-03-24T07:46:13;12.70;78.20
52575;DHT22;38468;48.114;-1.684;2023-03-24T07:48:14;12.80;77.20
52575;DHT22;38468;48.114;-1.684;2023-03-24T07:50:15;13.00;77.70
52575;DHT22;38468;48.114;-1.684;2023-03-24T07:52:16;13.00;76.90
52575;DHT22;38468;48.114;-1.684;2023-03-24T07:54:17;13.20;77.60
52575;DHT22;38468;48.114;-1.684;2023-03-24T07:56:18;13.40;76.70
52575;DHT22;38468;48.114;-1.684;2023-03-24T07:58:18;13.40;75.60
52575;DHT22;38468;48.114;-1.684;2023-03-24T08:00:19;13.40;76.20
52575;DHT22;38468;48.114;-1.684;2023-03-24T08:02:21;13.50;75.00
52575;DHT22;38468;48.114;-1.684;2023-03-24T08:04:21;13.50;75.60
52575;DHT22;38468;48.114;-1.684;2023-03-24T08:06:22;13.80;75.20
52575;DHT22;38468;48.114;-1.684;2023-03-24T08:08:23;13.90;75.20
52575;DHT22;38468;48.114;-1.684;2023-03-24T08:10:26;13.70;74.00
52575;DHT22;38468;48.114;-1.684;2023-03-24T08:12:27;13.70;73.40
52575;DHT22;38468;48.114;-1.684;2023-03-24T08:14:27;13.90;74.70
52575;DHT22;38468;48.114;-1.684;2023-03-24T08:16:28;14.00;73.90
52575;DHT22;38468;48.114;-1.684;2023-03-24T08:18:29;14.00;73.10
52575;DHT22;38468;48.114;-1.684;2023-03-24T08:20:31;14.00;72.30
52575;DHT22;38468;48.114;-1.684;2023-03-24T08:22:32;13.90;73.10
52575;DHT22;38468;48.114;-1.684;2023-03-24T08:24:34;14.00;71.70
52575;DHT22;38468;48.114;-1.684;2023-03-24T08:26:35;14.40;72.50
52575;DHT22;38468;48.114;-1.684;2023-03-24T08:28:36;14.80;72.10
52575;DHT22;38468;48.114;-1.684;2023-03-24T08:30:37;15.00;70.90
52575;DHT22;38468;48.114;-1.684;2023-03-24T08:32:43;15.30;69.80
52575;DHT22;38468;48.114;-1.684;2023-03-24T08:34:44;15.40;69.50
52575;DHT22;38468;48.114;-1.684;2023-03-24T08:36:45;15.90;70.10
52575;DHT22;38468;48.114;-1.684;2023-03-24T08:38:45;16.30;69.30
52575;DHT22;38468;48.114;-1.684;2023-03-24T08:40:47;16.10;64.30
52575;DHT22;38468;48.114;-1.684;2023-03-24T08:42:51;16.00;66.70
52575;DHT22;38468;48.114;-1.684;2023-03-24T08:44:52;16.30;67.60
52575;DHT22;38468;48.114;-1.684;2023-03-24T08:46:53;16.30;66.10
52575;DHT22;38468;48.114;-1.684;2023-03-24T08:48:53;16.00;65.80
52575;DHT22;38468;48.114;-1.684;2023-03-24T08:50:55;16.00;66.70
52575;DHT22;38468;48.114;-1.684;2023-03-24T08:52:56;16.00;66.90
52575;DHT22;38468;48.114;-1.684;2023-03-24T08:54:58;16.10;67.10
52575;DHT22;38468;48.114;-1.684;2023-03-24T08:56:59;16.00;67.30
52575;DHT22;38468;48.114;-1.684;2023-03-24T08:58:59;16.00;67.50
52575;DHT22;38468;48.114;-1.684;2023-03-24T09:01:00;15.70;67.10
52575;DHT22;38468;48.114;-1.684;2023-03-24T09:03:01;15.50;67.40
52575;DHT22;38468;48.114;-1.684;2023-03-24T09:05:02;15.40;67.70
52575;DHT22;38468;48.114;-1.684;2023-03-24T09:07:03;15.50;67.60
52575;DHT22;38468;48.114;-1.684;2023-03-24T09:09:05;15.60;67.90
52575;DHT22;38468;48.114;-1.684;2023-03-24T09:11:14;15.70;66.60
52575;DHT22;38468;48.114;-1.684;2023-03-24T09:13:15;16.00;66.60
52575;DHT22;38468;48.114;-1.684;2023-03-24T09:15:17;16.10;64.00
52575;DHT22;38468;48.114;-1.684;2023-03-24T09:17:17;16.00;65.20
52575;DHT22;38468;48.114;-1.684;2023-03-24T09:19:18;15.80;64.00
52575;DHT22;38468;48.114;-1.684;2023-03-24T09:21:19;15.90;64.30
52575;DHT22;38468;48.114;-1.684;2023-03-24T09:23:20;15.90;64.50
52575;DHT22;38468;48.114;-1.684;2023-03-24T09:25:22;16.20;65.20
52575;DHT22;38468;48.114;-1.684;2023-03-24T09:27:23;16.30;62.20
52575;DHT22;38468;48.114;-1.684;2023-03-24T09:29:24;16.40;63.90
52575;DHT22;38468;48.114;-1.684;2023-03-24T09:31:24;16.60;63.80
52575;DHT22;38468;48.114;-1.684;2023-03-24T09:33:26;17.00;63.60
52575;DHT22;38468;48.114;-1.684;2023-03-24T09:35:28;17.20;61.80
52575;DHT22;38468;48.114;-1.684;2023-03-24T09:37:33;17.10;59.90
52575;DHT22;38468;48.114;-1.684;2023-03-24T09:39:35;17.10;61.50
52575;DHT22;38468;48.114;-1.684;2023-03-24T09:41:36;17.30;61.80
52575;DHT22;38468;48.114;-1.684;2023-03-24T09:45:52;17.00;60.40
52575;DHT22;38468;48.114;-1.684;2023-03-24T09:47:57;17.00;61.70
52575;DHT22;38468;48.114;-1.684;2023-03-24T09:50:23;16.70;60.60
52575;DHT22;38468;48.114;-1.684;2023-03-24T09:52:29;16.60;62.10
52575;DHT22;38468;48.114;-1.684;2023-03-24T09:54:45;16.20;61.00
52575;DHT22;38468;48.114;-1.684;2023-03-24T09:56:49;16.00;61.70
52575;DHT22;38468;48.114;-1.684;2023-03-24T09:59:10;16.20;62.70
52575;DHT22;38468;48.114;-1.684;2023-03-24T10:01:13;16.20;61.90
52575;DHT22;38468;48.114;-1.684;2023-03-24T10:03:21;16.20;61.50
52575;DHT22;38468;48.114;-1.684;2023-03-24T10:06:29;16.20;61.30
52575;DHT22;38468;48.114;-1.684;2023-03-24T10:10:38;16.10;61.70
52575;DHT22;38468;48.114;-1.684;2023-03-24T10:12:47;16.00;62.40
52575;DHT22;38468;48.114;-1.684;2023-03-24T10:27:05;15.70;64.10
52575;DHT22;38468;48.114;-1.684;2023-03-24T10:29:28;15.80;62.20
52575;DHT22;38468;48.114;-1.684;2023-03-24T10:31:32;15.70;62.80
52575;DHT22;38468;48.114;-1.684;2023-03-24T10:33:36;15.50;62.30
52575;DHT22;38468;48.114;-1.684;2023-03-24T10:38:21;15.20;63.50
52575;DHT22;38468;48.114;-1.684;2023-03-24T10:40:24;15.20;64.20
52575;DHT22;38468;48.114;-1.684;2023-03-24T10:42:30;15.20;64.60
52575;DHT22;38468;48.114;-1.684;2023-03-24T10:44:32;15.00;64.70
52575;DHT22;38468;48.114;-1.684;2023-03-24T10:46:32;14.70;65.50
52575;DHT22;38468;48.114;-1.684;2023-03-24T10:48:43;14.60;65.90
52575;DHT22;38468;48.114;-1.684;2023-03-24T10:50:44;14.50;66.60
52575;DHT22;38468;48.114;-1.684;2023-03-24T10:52:46;14.40;67.10
52575;DHT22;38468;48.114;-1.684;2023-03-24T10:54:56;14.20;67.50
52575;DHT22;38468;48.114;-1.684;2023-03-24T10:58:59;13.90;67.40
52575;DHT22;38468;48.114;-1.684;2023-03-24T11:01:01;13.90;67.40
52575;DHT22;38468;48.114;-1.684;2023-03-24T11:03:05;13.90;67.90
52575;DHT22;38468;48.114;-1.684;2023-03-24T11:05:19;14.00;67.90
52575;DHT22;38468;48.114;-1.684;2023-03-24T11:07:27;14.10;68.20
52575;DHT22;38468;48.114;-1.684;2023-03-24T11:09:29;14.30;67.90
52575;DHT22;38468;48.114;-1.684;2023-03-24T11:11:37;14.40;67.70
52575;DHT22;38468;48.114;-1.684;2023-03-24T11:13:38;14.30;67.40
52575;DHT22;38468;48.114;-1.684;2023-03-24T11:15:54;14.30;68.00
52575;DHT22;38468;48.114;-1.684;2023-03-24T11:17:57;14.40;68.60
52575;DHT22;38468;48.114;-1.684;2023-03-24T11:19:58;14.50;68.40
52575;DHT22;38468;48.114;-1.684;2023-03-24T11:22:02;14.60;68.50
52575;DHT22;38468;48.114;-1.684;2023-03-24T11:24:13;14.80;68.20
52575;DHT22;38468;48.114;-1.684;2023-03-24T11:28:25;15.00;67.80
52575;DHT22;38468;48.114;-1.684;2023-03-24T11:30:33;15.10;67.80
52575;DHT22;38468;48.114;-1.684;2023-03-24T11:32:35;15.30;67.40
52575;DHT22;38468;48.114;-1.684;2023-03-24T11:34:37;15.40;67.10
52575;DHT22;38468;48.114;-1.684;2023-03-24T11:36:42;15.50;67.20
52575;DHT22;38468;48.114;-1.684;2023-03-24T11:38:43;15.40;66.10
52575;DHT22;38468;48.114;-1.684;2023-03-24T11:41:00;15.50;66.50
52575;DHT22;38468;48.114;-1.684;2023-03-24T11:43:03;15.40;65.90
52575;DHT22;38468;48.114;-1.684;2023-03-24T11:47:29;15.20;65.60
52575;DHT22;38468;48.114;-1.684;2023-03-24T11:49:33;15.30;65.20
52575;DHT22;38468;48.114;-1.684;2023-03-24T11:51:37;15.30;65.60
52575;DHT22;38468;48.114;-1.684;2023-03-24T11:53:45;15.40;65.20
52575;DHT22;38468;48.114;-1.684;2023-03-24T12:04:58;15.50;64.90
52575;DHT22;38468;48.114;-1.684;2023-03-24T12:07:31;15.40;63.60
52575;DHT22;38468;48.114;-1.684;2023-03-24T12:09:47;15.20;63.70
52575;DHT22;38468;48.114;-1.684;2023-03-24T12:12:04;15.00;65.40
52575;DHT22;38468;48.114;-1.684;2023-03-24T12:14:08;15.10;66.50
52575;DHT22;38468;48.114;-1.684;2023-03-24T12:23:07;15.10;65.30
52575;DHT22;38468;48.114;-1.684;2023-03-24T12:25:17;14.90;65.30
52575;DHT22;38468;48.114;-1.684;2023-03-24T12:34:54;14.90;66.60
52575;DHT22;38468;48.114;-1.684;2023-03-24T12:46:38;14.60;66.60
52575;DHT22;38468;48.114;-1.684;2023-03-24T12:49:22;14.80;66.40
52575;DHT22;38468;48.114;-1.684;2023-03-24T12:54:14;15.00;66.60
52575;DHT22;38468;48.114;-1.684;2023-03-24T13:01:26;15.30;66.60
52575;DHT22;38468;48.114;-1.684;2023-03-24T13:03:27;15.20;66.40
52575;DHT22;38468;48.114;-1.684;2023-03-24T13:05:32;15.10;66.10
52575;DHT22;38468;48.114;-1.684;2023-03-24T13:07:35;15.20;66.50
52575;DHT22;38468;48.114;-1.684;2023-03-24T13:09:50;15.20;66.30
52575;DHT22;38468;48.114;-1.684;2023-03-24T13:12:05;15.30;66.80
52575;DHT22;38468;48.114;-1.684;2023-03-24T13:14:15;15.40;66.20
52575;DHT22;38468;48.114;-1.684;2023-03-24T13:16:22;15.40;65.50
52575;DHT22;38468;48.114;-1.684;2023-03-24T13:22:51;15.50;63.60
52575;DHT22;38468;48.114;-1.684;2023-03-24T13:24:53;15.30;63.70
52575;DHT22;38468;48.114;-1.684;2023-03-24T13:31:35;15.20;63.80
52575;DHT22;38468;48.114;-1.684;2023-03-24T13:33:38;15.00;62.90
52575;DHT22;38468;48.114;-1.684;2023-03-24T13:36:10;15.00;63.00
52575;DHT22;38468;48.114;-1.684;2023-03-24T13:38:19;15.00;63.50
52575;DHT22;38468;48.114;-1.684;2023-03-24T13:40:29;15.00;63.20
52575;DHT22;38468;48.114;-1.684;2023-03-24T13:42:41;14.90;62.80
52575;DHT22;38468;48.114;-1.684;2023-03-24T13:44:42;14.90;63.00
52575;DHT22;38468;48.114;-1.684;2023-03-24T13:47:09;14.80;64.10
52575;DHT22;38468;48.114;-1.684;2023-03-24T13:49:13;14.80;65.80
52575;DHT22;38468;48.114;-1.684;2023-03-24T13:51:27;14.50;65.30
52575;DHT22;38468;48.114;-1.684;2023-03-24T13:53:33;14.40;65.30
52575;DHT22;38468;48.114;-1.684;2023-03-24T13:55:37;14.00;65.20
52575;DHT22;38468;48.114;-1.684;2023-03-24T13:57:50;13.90;65.70
52575;DHT22;38468;48.114;-1.684;2023-03-24T14:02:23;13.60;66.70
52575;DHT22;38468;48.114;-1.684;2023-03-24T14:05:07;13.80;66.70
52575;DHT22;38468;48.114;-1.684;2023-03-24T14:09:31;13.70;66.60
52575;DHT22;38468;48.114;-1.684;2023-03-24T14:13:45;13.60;67.10
52575;DHT22;38468;48.114;-1.684;2023-03-24T14:15:56;13.50;65.70
52575;DHT22;38468;48.114;-1.684;2023-03-24T14:22:56;12.80;66.60
52575;DHT22;38468;48.114;-1.684;2023-03-24T14:25:16;12.70;63.90
52575;DHT22;38468;48.114;-1.684;2023-03-24T14:31:38;12.60;64.70
52575;DHT22;38468;48.114;-1.684;2023-03-24T14:33:44;12.70;65.10
52575;DHT22;38468;48.114;-1.684;2023-03-24T14:36:04;12.90;65.50
52575;DHT22;38468;48.114;-1.684;2023-03-24T14:40:35;13.00;66.00
52575;DHT22;38468;48.114;-1.684;2023-03-24T14:46:57;12.60;66.80
52575;DHT22;38468;48.114;-1.684;2023-03-24T14:49:03;12.40;66.90
52575;DHT22;38468;48.114;-1.684;2023-03-24T14:51:31;12.20;67.30
52575;DHT22;38468;48.114;-1.684;2023-03-24T14:53:38;12.10;67.50
52575;DHT22;38468;48.114;-1.684;2023-03-24T14:55:40;12.00;67.70
52575;DHT22;38468;48.114;-1.684;2023-03-24T14:57:47;11.90;66.90
52575;DHT22;38468;48.114;-1.684;2023-03-24T15:05:24;11.70;67.20
52575;DHT22;38468;48.114;-1.684;2023-03-24T15:07:30;11.60;67.50
52575;DHT22;38468;48.114;-1.684;2023-03-24T15:09:35;11.70;68.10
52575;DHT22;38468;48.114;-1.684;2023-03-24T15:11:38;11.70;67.60
52575;DHT22;38468;48.114;-1.684;2023-03-24T15:13:47;11.70;67.60
52575;DHT22;38468;48.114;-1.684;2023-03-24T15:15:48;11.90;67.30
52575;DHT22;38468;48.114;-1.684;2023-03-24T15:17:50;11.80;67.20
52575;DHT22;38468;48.114;-1.684;2023-03-24T15:19:52;11.90;67.10
52575;DHT22;38468;48.114;-1.684;2023-03-24T15:22:02;11.90;67.20
52575;DHT22;38468;48.114;-1.684;2023-03-24T15:26:24;12.10;67.40
52575;DHT22;38468;48.114;-1.684;2023-03-24T15:28:29;12.20;67.20
52575;DHT22;38468;48.114;-1.684;2023-03-24T15:30:30;12.30;66.80
52575;DHT22;38468;48.114;-1.684;2023-03-24T15:32:31;12.40;66.60
52575;DHT22;38468;48.114;-1.684;2023-03-24T15:34:45;12.40;66.60
52575;DHT22;38468;48.114;-1.684;2023-03-24T15:36:52;12.30;66.80
52575;DHT22;38468;48.114;-1.684;2023-03-24T15:38:53;12.40;67.30
52575;DHT22;38468;48.114;-1.684;2023-03-24T15:41:08;12.40;67.10
52575;DHT22;38468;48.114;-1.684;2023-03-24T15:43:19;12.50;67.10
52575;DHT22;38468;48.114;-1.684;2023-03-24T15:45:35;12.70;67.30
52575;DHT22;38468;48.114;-1.684;2023-03-24T15:47:38;12.70;66.90
52575;DHT22;38468;48.114;-1.684;2023-03-24T15:49:56;12.70;67.00